sensor_id;sensor_type;location;lat;lon;timestamp;P1;P2;P0
55076;PMS7003;40971;44.702;11.030;2023-03-17T00:02:49;16.00;13.00;10.00
55076;PMS7003;40971;44.702;11.030;2023-03-17T00:12:53;21.33;19.00;13.00
55076;PMS7003;40971;44.702;11.030;2023-03-17T00:22:55;14.00;14.00;10.00
55076;PMS7003;40971;44.702;11.030;2023-03-17T00:32:59;12.00;10.00;7.00
55076;PMS7003;40971;44.702;11.030;2023-03-17T00:43:01;10.50;9.25;7.00
55076;PMS7003;40971;44.702;11.030;2023-03-17T00:53:05;10.00;10.00;9.00
55076;PMS7003;40971;44.702;11.030;2023-03-17T01:03:11;11.50;9.00;6.00
55076;PMS7003;40971;44.702;11.030;2023-03-17T01:13:12;12.50;12.50;9.00
55076;PMS7003;40971;44.702;11.030;2023-03-17T01:23:14;12.00;12.00;9.00
55076;PMS7003;40971;44.702;11.030;2023-03-17T01:33:16;13.00;13.00;12.50
55076;PMS7003;40971;44.702;11.030;2023-03-17T01:43:22;15.00;13.67;10.67
55076;PMS7003;40971;44.702;11.030;2023-03-17T01:53:27;9.33;9.33;7.67
55076;PMS7003;40971;44.702;11.030;2023-03-17T02:03:28;16.00;16.00;13.00
55076;PMS7003;40971;44.702;11.030;2023-03-17T02:13:31;17.33;15.00;10.67
55076;PMS7003;40971;44.702;11.030;2023-03-17T02:23:34;15.00;15.00;12.00
55076;PMS7003;40971;44.702;11.030;2023-03-17T02:33:36;15.50;15.50;13.00
55076;PMS7003;40971;44.702;11.030;2023-03-17T02:43:37;15.00;12.00;9.00
55076;PMS7003;40971;44.702;11.030;2023-03-17T02:53:39;12.00;12.00;9.00
55076;PMS7003;40971;44.702;11.030;2023-03-17T03:03:40;14.67;14.67;12.33
55076;PMS7003;40971;44.702;11.030;2023-03-17T03:13:41;20.00;17.00;12.00
55076;PMS7003;40971;44.702;11.030;2023-03-17T03:23:42;16.00;16.00;12.00
55076;PMS7003;40971;44.702;11.030;2023-03-17T03:33:44;19.00;18.00;13.00
55076;PMS7003;40971;44.702;11.030;2023-03-17T03:43:46;12.50;12.50;12.00
55076;PMS7003;40971;44.702;11.030;2023-03-17T03:53:47;13.33;13.33;10.67
55076;PMS7003;40971;44.702;11.030;2023-03-17T04:03:48;15.50;15.50;10.00
55076;PMS7003;40971;44.702;11.030;2023-03-17T04:13:49;15.67;14.33;10.67
55076;PMS7003;40971;44.702;11.030;2023-03-17T04:23:50;15.50;15.50;13.00
55076;PMS7003;40971;44.702;11.030;2023-03-17T04:33:51;12.00;12.00;9.00
55076;PMS7003;40971;44.702;11.030;2023-03-17T04:43:52;18.00;18.00;16.00
55076;PMS7003;40971;44.702;11.030;2023-03-17T04:53:54;13.00;13.00;10.00
55076;PMS7003;40971;44.702;11.030;2023-03-17T05:03:56;19.33;19.33;11.33
55076;PMS7003;40971;44.702;11.030;2023-03-17T05:13:59;13.33;13.33;8.50
55076;PMS7003;40971;44.702;11.030;2023-03-17T05:24:01;21.67;20.67;13.67
55076;PMS7003;40971;44.702;11.030;2023-03-17T05:34:03;7.00;7.00;6.50
55076;PMS7003;40971;44.702;11.030;2023-03-17T05:44:05;16.00;13.00;10.00
55076;PMS7003;40971;44.702;11.030;2023-03-17T05:54:06;21.00;18.00;14.33
55076;PMS7003;40971;44.702;11.030;2023-03-17T06:04:08;22.00;22.00;15.00
55076;PMS7003;40971;44.702;11.030;2023-03-17T06:14:11;19.14;19.14;13.57
55076;PMS7003;40971;44.702;11.030;2023-03-17T06:24:13;26.33;26.33;19.00
55076;PMS7003;40971;44.702;11.030;2023-03-17T06:34:16;25.67;24.33;15.33
55076;PMS7003;40971;44.702;11.030;2023-03-17T06:44:19;24.00;22.00;19.00
55076;PMS7003;40971;44.702;11.030;2023-03-17T06:54:23;29.63;28.25;20.50
55076;PMS7003;40971;44.702;11.030;2023-03-17T07:04:27;21.57;18.71;15.57
55076;PMS7003;40971;44.702;11.030;2023-03-17T07:14:31;20.17;20.17;15.33
55076;PMS7003;40971;44.702;11.030;2023-03-17T07:24:34;22.00;21.33;15.00
55076;PMS7003;40971;44.702;11.030;2023-03-17T07:34:36;15.67;15.67;12.00
55076;PMS7003;40971;44.702;11.030;2023-03-17T07:44:38;22.33;22.33;17.33
55076;PMS7003;40971;44.702;11.030;2023-03-17T07:54:41;19.80;19.80;15.20
55076;PMS7003;40971;44.702;11.030;2023-03-17T08:04:45;18.14;18.00;15.14
55076;PMS7003;40971;44.702;11.030;2023-03-17T08:14:48;14.83;13.17;11.33
55076;PMS7003;40971;44.702;11.030;2023-03-17T08:24:49;10.50;10.50;8.50
55076;PMS7003;40971;44.702;11.030;2023-03-17T08:34:53;9.67;9.67;7.67
55076;PMS7003;40971;44.702;11.030;2023-03-17T08:44:54;9.00;6.00;5.00
55076;PMS7003;40971;44.702;11.030;2023-03-17T08:54:56;13.00;11.00;10.00
55076;PMS7003;40971;44.702;11.030;2023-03-17T09:05:00;13.00;13.00;10.00
55076;PMS7003;40971;44.702;11.030;2023-03-17T09:15:05;16.29;16.29;11.86
55076;PMS7003;40971;44.702;11.030;2023-03-17T09:25:08;15.00;14.00;11.00
55076;PMS7003;40971;44.702;11.030;2023-03-17T09:35:11;13.00;12.71;9.71
55076;PMS7003;40971;44.702;11.030;2023-03-17T09:55:36;7.00;7.00;6.00
55076;PMS7003;40971;44.702;11.030;2023-03-17T10:05:41;8.00;7.00;5.00
55076;PMS7003;40971;44.702;11.030;2023-03-17T10:16:05;7.00;7.00;4.50
55076;PMS7003;40971;44.702;11.030;2023-03-17T10:36:34;9.00;9.00;8.00
55076;PMS7003;40971;44.702;11.030;2023-03-17T10:46:37;9.50;8.50;8.00
55076;PMS7003;40971;44.702;11.030;2023-03-17T10:56:39;11.00;11.00;7.00
55076;PMS7003;40971;44.702;11.030;2023-03-17T11:06:43;9.00;8.00;7.00
55076;PMS7003;40971;44.702;11.030;2023-03-17T11:16:54;7.50;7.50;7.00
55076;PMS7003;40971;44.702;11.030;2023-03-17T12:08:44;10.50;8.50;6.00
55076;PMS7003;40971;44.702;11.030;2023-03-17T12:29:24;8.00;8.00;6.00
55076;PMS7003;40971;44.702;11.030;2023-03-17T12:39:39;6.00;6.00;6.00
55076;PMS7003;40971;44.702;11.030;2023-03-17T13:00:30;9.50;6.00;5.00
55076;PMS7003;40971;44.702;11.030;2023-03-17T13:30:56;9.00;9.00;7.00
55076;PMS7003;40971;44.702;11.030;2023-03-17T13:51:20;14.00;11.50;8.00
55076;PMS7003;40971;44.702;11.030;2023-03-17T14:01:23;5.00;5.00;5.00
55076;PMS7003;40971;44.702;11.030;2023-03-17T14:11:31;11.83;10.17;6.50
55076;PMS7003;40971;44.702;11.030;2023-03-17T14:21:35;5.00;5.00;3.00
55076;PMS7003;40971;44.702;11.030;2023-03-17T14:31:38;12.33;10.00;7.17
55076;PMS7003;40971;44.702;11.030;2023-03-17T14:41:39;7.00;7.00;5.00
55076;PMS7003;40971;44.702;11.030;2023-03-17T14:51:41;8.00;8.00;6.50
55076;PMS7003;40971;44.702;11.030;2023-03-17T15:01:45;9.00;9.00;6.00
55076;PMS7003;40971;44.702;11.030;2023-03-17T15:11:47;9.50;9.50;8.50
55076;PMS7003;40971;44.702;11.030;2023-03-17T15:21:49;9.00;9.00;6.00
55076;PMS7003;40971;44.702;11.030;2023-03-17T15:31:50;6.00;5.00;4.00
55076;PMS7003;40971;44.702;11.030;2023-03-17T15:41:51;6.67;6.67;5.00
55076;PMS7003;40971;44.702;11.030;2023-03-17T15:51:52;10.00;9.00;8.00
55076;PMS7003;40971;44.702;11.030;2023-03-17T16:01:54;9.00;9.00;8.00
55076;PMS7003;40971;44.702;11.030;2023-03-17T16:11:55;11.33;11.33;8.00
55076;PMS7003;40971;44.702;11.030;2023-03-17T16:21:57;11.00;8.50;5.50
55076;PMS7003;40971;44.702;11.030;2023-03-17T16:31:58;9.00;9.00;7.50
55076;PMS7003;40971;44.702;11.030;2023-03-17T16:42:00;10.50;8.50;7.00
55076;PMS7003;40971;44.702;11.030;2023-03-17T16:52:01;9.00;9.00;7.00
55076;PMS7003;40971;44.702;11.030;2023-03-17T17:02:02;7.50;7.50;7.00
55076;PMS7003;40971;44.702;11.030;2023-03-17T17:12:04;8.00;8.00;5.00
55076;PMS7003;40971;44.702;11.030;2023-03-17T17:22:05;13.00;12.00;8.00
55076;PMS7003;40971;44.702;11.030;2023-03-17T17:32:08;10.33;10.33;7.67
55076;PMS7003;40971;44.702;11.030;2023-03-17T17:42:10;11.00;11.00;10.00
55076;PMS7003;40971;44.702;11.030;2023-03-17T17:52:12;16.00;16.00;12.00
55076;PMS7003;40971;44.702;11.030;2023-03-17T18:02:15;12.50;11.50;8.33
55076;PMS7003;40971;44.702;11.030;2023-03-17T18:12:16;16.00;15.00;10.00
55076;PMS7003;40971;44.702;11.030;2023-03-17T18:22:17;14.00;11.00;6.50
55076;PMS7003;40971;44.702;11.030;2023-03-17T18:32:19;14.00;13.00;11.00
55076;PMS7003;40971;44.702;11.030;2023-03-17T18:42:20;11.00;11.00;9.00
55076;PMS7003;40971;44.702;11.030;2023-03-17T18:52:22;12.00;10.00;9.00
55076;PMS7003;40971;44.702;11.030;2023-03-17T19:02:25;12.14;12.14;8.57
55076;PMS7003;40971;44.702;11.030;2023-03-17T19:12:26;16.00;16.00;12.00
55076;PMS7003;40971;44.702;11.030;2023-03-17T19:22:29;11.50;11.50;9.00
55076;PMS7003;40971;44.702;11.030;2023-03-17T19:32:30;15.00;13.00;10.00
55076;PMS7003;40971;44.702;11.030;2023-03-17T19:42:34;16.71;15.57;9.86
55076;PMS7003;40971;44.702;11.030;2023-03-17T19:52:37;16.00;16.00;13.00
55076;PMS7003;40971;44.702;11.030;2023-03-17T20:02:38;16.67;16.67;12.67
55076;PMS7003;40971;44.702;11.030;2023-03-17T20:12:41;21.67;20.33;15.00
55076;PMS7003;40971;44.702;11.030;2023-03-17T20:22:46;18.33;18.00;12.33
55076;PMS7003;40971;44.702;11.030;2023-03-17T20:32:50;16.86;16.29;12.43
55076;PMS7003;40971;44.702;11.030;2023-03-17T20:42:51;15.00;13.00;10.00
55076;PMS7003;40971;44.702;11.030;2023-03-17T20:52:53;12.50;12.50;11.00
55076;PMS7003;40971;44.702;11.030;2023-03-17T21:02:54;35.00;35.00;24.00
55076;PMS7003;40971;44.702;11.030;2023-03-17T21:12:56;10.00;10.00;9.00
55076;PMS7003;40971;44.702;11.030;2023-03-17T21:23:00;15.43;15.14;11.43
55076;PMS7003;40971;44.702;11.030;2023-03-17T21:33:04;18.33;18.33;12.00
55076;PMS7003;40971;44.702;11.030;2023-03-17T21:43:07;21.67;21.00;16.00
55076;PMS7003;40971;44.702;11.030;2023-03-17T21:53:11;28.33;28.33;18.67
55076;PMS7003;40971;44.702;11.030;2023-03-17T22:03:16;21.50;20.50;15.50
55076;PMS7003;40971;44.702;11.030;2023-03-17T22:13:17;24.67;24.67;18.33
55076;PMS7003;40971;44.702;11.030;2023-03-17T22:23:18;20.33;18.33;13.67
55076;PMS7003;40971;44.702;11.030;2023-03-17T22:33:22;23.14;20.43;13.71
55076;PMS7003;40971;44.702;11.030;2023-03-17T22:43:24;22.00;22.00;15.00
55076;PMS7003;40971;44.702;11.030;2023-03-17T22:53:27;23.33;22.50;16.33
55076;PMS7003;40971;44.702;11.030;2023-03-17T23:03:29;15.50;15.50;12.00
55076;PMS7003;40971;44.702;11.030;2023-03-17T23:13:30;23.67;20.67;14.67
55076;PMS7003;40971;44.702;11.030;2023-03-17T23:23:33;19.00;16.00;15.00
55076;PMS7003;40971;44.702;11.030;2023-03-17T23:33:35;18.50;18.50;15.00
55076;PMS7003;40971;44.702;11.030;2023-03-17T23:43:38;21.00;21.00;15.33
55076;PMS7003;40971;44.702;11.030;2023-03-17T23:53:39;12.50;12.50;12.00
